sensor_id;sensor_type;location;lat;lon;timestamp;P1;durP1;ratioP1;P2;durP2;ratioP2
74898;SDS011;63458;48.210;16.338;2023-05-08T00:00:34;13.95;;;9.93;;
74898;SDS011;63458;48.210;16.338;2023-05-08T00:03:00;14.23;;;10.40;;
74898;SDS011;63458;48.210;16.338;2023-05-08T00:05:26;14.15;;;10.38;;
74898;SDS011;63458;48.210;16.338;2023-05-08T00:07:52;13.95;;;9.98;;
74898;SDS011;63458;48.210;16.338;2023-05-08T00:10:25;15.07;;;10.73;;
74898;SDS011;63458;48.210;16.338;2023-05-08T00:12:51;14.07;;;10.13;;
74898;SDS011;63458;48.210;16.338;2023-05-08T00:15:17;13.10;;;10.05;;
74898;SDS011;63458;48.210;16.338;2023-05-08T00:17:43;14.27;;;10.27;;
74898;SDS011;63458;48.210;16.338;2023-05-08T00:20:09;12.73;;;8.90;;
74898;SDS011;63458;48.210;16.338;2023-05-08T00:22:35;12.50;;;9.43;;
74898;SDS011;63458;48.210;16.338;2023-05-08T00:25:01;13.00;;;8.73;;
74898;SDS011;63458;48.210;16.338;2023-05-08T00:27:29;13.77;;;10.07;;
74898;SDS011;63458;48.210;16.338;2023-05-08T00:29:55;12.93;;;9.40;;
74898;SDS011;63458;48.210;16.338;2023-05-08T00:32:22;11.55;;;8.63;;
74898;SDS011;63458;48.210;16.338;2023-05-08T00:34:48;13.50;;;9.30;;
74898;SDS011;63458;48.210;16.338;2023-05-08T00:37:14;12.38;;;9.27;;
74898;SDS011;63458;48.210;16.338;2023-05-08T00:39:40;11.57;;;7.97;;
74898;SDS011;63458;48.210;16.338;2023-05-08T00:42:06;13.10;;;9.43;;
74898;SDS011;63458;48.210;16.338;2023-05-08T00:44:32;12.30;;;9.30;;
74898;SDS011;63458;48.210;16.338;2023-05-08T00:46:58;12.60;;;9.05;;
74898;SDS011;63458;48.210;16.338;2023-05-08T00:49:25;12.93;;;8.10;;
74898;SDS011;63458;48.210;16.338;2023-05-08T00:51:52;14.77;;;10.60;;
74898;SDS011;63458;48.210;16.338;2023-05-08T00:54:19;12.40;;;8.45;;
74898;SDS011;63458;48.210;16.338;2023-05-08T00:56:45;12.63;;;8.93;;
74898;SDS011;63458;48.210;16.338;2023-05-08T00:59:12;12.18;;;8.77;;
74898;SDS011;63458;48.210;16.338;2023-05-08T01:01:38;12.75;;;9.00;;
74898;SDS011;63458;48.210;16.338;2023-05-08T01:04:05;11.10;;;8.30;;
74898;SDS011;63458;48.210;16.338;2023-05-08T01:06:31;11.00;;;7.57;;
74898;SDS011;63458;48.210;16.338;2023-05-08T01:09:01;11.48;;;8.68;;
74898;SDS011;63458;48.210;16.338;2023-05-08T01:11:29;11.65;;;8.30;;
74898;SDS011;63458;48.210;16.338;2023-05-08T01:21:50;12.43;;;8.38;;
74898;SDS011;63458;48.210;16.338;2023-05-08T01:24:37;13.02;;;8.85;;
74898;SDS011;63458;48.210;16.338;2023-05-08T01:32:29;11.88;;;8.20;;
74898;SDS011;63458;48.210;16.338;2023-05-08T01:37:26;13.23;;;9.20;;
74898;SDS011;63458;48.210;16.338;2023-05-08T01:39:58;13.38;;;9.10;;
74898;SDS011;63458;48.210;16.338;2023-05-08T01:42:42;12.85;;;9.48;;
74898;SDS011;63458;48.210;16.338;2023-05-08T01:45:21;11.90;;;8.68;;
74898;SDS011;63458;48.210;16.338;2023-05-08T01:47:50;12.75;;;8.90;;
74898;SDS011;63458;48.210;16.338;2023-05-08T01:50:21;12.15;;;9.52;;
74898;SDS011;63458;48.210;16.338;2023-05-08T01:52:50;13.65;;;9.85;;
74898;SDS011;63458;48.210;16.338;2023-05-08T01:55:23;14.20;;;10.10;;
74898;SDS011;63458;48.210;16.338;2023-05-08T01:57:51;13.73;;;9.15;;
74898;SDS011;63458;48.210;16.338;2023-05-08T02:00:20;13.50;;;10.43;;
74898;SDS011;63458;48.210;16.338;2023-05-08T02:02:47;14.38;;;11.00;;
74898;SDS011;63458;48.210;16.338;2023-05-08T02:05:14;12.88;;;9.57;;
74898;SDS011;63458;48.210;16.338;2023-05-08T02:07:41;15.00;;;10.40;;
74898;SDS011;63458;48.210;16.338;2023-05-08T02:10:08;14.88;;;10.23;;
74898;SDS011;63458;48.210;16.338;2023-05-08T02:12:35;14.57;;;11.20;;
74898;SDS011;63458;48.210;16.338;2023-05-08T02:15:01;13.13;;;10.00;;
74898;SDS011;63458;48.210;16.338;2023-05-08T02:17:28;14.88;;;9.73;;
74898;SDS011;63458;48.210;16.338;2023-05-08T02:19:55;13.35;;;9.85;;
74898;SDS011;63458;48.210;16.338;2023-05-08T02:22:22;13.60;;;9.93;;
74898;SDS011;63458;48.210;16.338;2023-05-08T02:24:49;13.10;;;9.70;;
74898;SDS011;63458;48.210;16.338;2023-05-08T02:27:19;13.13;;;9.57;;
74898;SDS011;63458;48.210;16.338;2023-05-08T02:29:46;12.13;;;9.20;;
74898;SDS011;63458;48.210;16.338;2023-05-08T02:32:13;11.70;;;9.25;;
74898;SDS011;63458;48.210;16.338;2023-05-08T02:34:40;12.32;;;9.18;;
74898;SDS011;63458;48.210;16.338;2023-05-08T02:37:06;12.60;;;8.82;;
74898;SDS011;63458;48.210;16.338;2023-05-08T02:39:32;13.00;;;9.05;;
74898;SDS011;63458;48.210;16.338;2023-05-08T02:41:59;11.48;;;8.15;;
74898;SDS011;63458;48.210;16.338;2023-05-08T02:44:26;14.20;;;9.45;;
74898;SDS011;63458;48.210;16.338;2023-05-08T02:46:57;13.02;;;9.27;;
74898;SDS011;63458;48.210;16.338;2023-05-08T02:49:26;11.75;;;8.85;;
74898;SDS011;63458;48.210;16.338;2023-05-08T02:51:56;13.10;;;8.80;;
74898;SDS011;63458;48.210;16.338;2023-05-08T02:56:58;12.05;;;8.27;;
74898;SDS011;63458;48.210;16.338;2023-05-08T03:02:05;12.25;;;8.05;;
74898;SDS011;63458;48.210;16.338;2023-05-08T03:04:35;12.82;;;9.02;;
74898;SDS011;63458;48.210;16.338;2023-05-08T03:07:02;11.95;;;8.80;;
74898;SDS011;63458;48.210;16.338;2023-05-08T03:09:35;11.23;;;8.50;;
74898;SDS011;63458;48.210;16.338;2023-05-08T03:12:04;12.38;;;8.73;;
74898;SDS011;63458;48.210;16.338;2023-05-08T03:14:31;12.40;;;8.52;;
74898;SDS011;63458;48.210;16.338;2023-05-08T03:17:00;12.57;;;8.25;;
74898;SDS011;63458;48.210;16.338;2023-05-08T03:21:54;13.00;;;8.85;;
74898;SDS011;63458;48.210;16.338;2023-05-08T03:24:21;12.38;;;8.15;;
74898;SDS011;63458;48.210;16.338;2023-05-08T03:26:48;12.55;;;7.65;;
74898;SDS011;63458;48.210;16.338;2023-05-08T03:29:14;13.27;;;7.40;;
74898;SDS011;63458;48.210;16.338;2023-05-08T03:31:41;10.95;;;7.93;;
74898;SDS011;63458;48.210;16.338;2023-05-08T03:34:08;12.23;;;8.43;;
74898;SDS011;63458;48.210;16.338;2023-05-08T03:36:34;11.93;;;8.15;;
74898;SDS011;63458;48.210;16.338;2023-05-08T03:39:00;12.55;;;8.70;;
74898;SDS011;63458;48.210;16.338;2023-05-08T03:41:27;10.45;;;7.45;;
74898;SDS011;63458;48.210;16.338;2023-05-08T03:43:53;11.40;;;8.07;;
74898;SDS011;63458;48.210;16.338;2023-05-08T03:46:20;12.07;;;7.70;;
74898;SDS011;63458;48.210;16.338;2023-05-08T03:48:46;11.65;;;7.90;;
74898;SDS011;63458;48.210;16.338;2023-05-08T03:51:14;12.32;;;8.05;;
74898;SDS011;63458;48.210;16.338;2023-05-08T03:53:41;12.88;;;8.38;;
74898;SDS011;63458;48.210;16.338;2023-05-08T03:56:07;11.52;;;7.32;;
74898;SDS011;63458;48.210;16.338;2023-05-08T03:58:37;11.68;;;7.72;;
74898;SDS011;63458;48.210;16.338;2023-05-08T04:01:30;13.93;;;9.68;;
74898;SDS011;63458;48.210;16.338;2023-05-08T04:09:13;12.40;;;8.90;;
74898;SDS011;63458;48.210;16.338;2023-05-08T04:14:20;14.02;;;8.48;;
74898;SDS011;63458;48.210;16.338;2023-05-08T04:16:50;12.95;;;8.88;;
74898;SDS011;63458;48.210;16.338;2023-05-08T04:19:22;14.27;;;9.30;;
74898;SDS011;63458;48.210;16.338;2023-05-08T04:21:49;14.30;;;9.00;;
74898;SDS011;63458;48.210;16.338;2023-05-08T04:24:19;11.90;;;8.00;;
74898;SDS011;63458;48.210;16.338;2023-05-08T04:26:46;12.63;;;9.57;;
74898;SDS011;63458;48.210;16.338;2023-05-08T04:29:13;12.77;;;9.20;;
74898;SDS011;63458;48.210;16.338;2023-05-08T04:31:39;12.70;;;8.23;;
74898;SDS011;63458;48.210;16.338;2023-05-08T04:34:06;14.30;;;9.30;;
74898;SDS011;63458;48.210;16.338;2023-05-08T04:36:33;12.07;;;9.02;;
74898;SDS011;63458;48.210;16.338;2023-05-08T04:38:59;15.13;;;9.88;;
74898;SDS011;63458;48.210;16.338;2023-05-08T04:41:25;12.23;;;7.90;;
74898;SDS011;63458;48.210;16.338;2023-05-08T04:43:52;11.45;;;8.40;;
74898;SDS011;63458;48.210;16.338;2023-05-08T04:46:18;11.02;;;6.97;;
74898;SDS011;63458;48.210;16.338;2023-05-08T04:48:44;11.23;;;8.50;;
74898;SDS011;63458;48.210;16.338;2023-05-08T04:51:10;11.88;;;8.98;;
74898;SDS011;63458;48.210;16.338;2023-05-08T04:53:36;11.00;;;8.02;;
74898;SDS011;63458;48.210;16.338;2023-05-08T04:56:02;13.95;;;8.48;;
74898;SDS011;63458;48.210;16.338;2023-05-08T04:58:28;13.25;;;7.80;;
74898;SDS011;63458;48.210;16.338;2023-05-08T05:00:54;10.75;;;7.97;;
74898;SDS011;63458;48.210;16.338;2023-05-08T05:03:20;11.55;;;7.60;;
74898;SDS011;63458;48.210;16.338;2023-05-08T05:05:46;10.63;;;7.30;;
74898;SDS011;63458;48.210;16.338;2023-05-08T05:08:12;10.85;;;7.70;;
74898;SDS011;63458;48.210;16.338;2023-05-08T05:10:38;11.90;;;7.40;;
74898;SDS011;63458;48.210;16.338;2023-05-08T05:13:04;10.90;;;8.18;;
74898;SDS011;63458;48.210;16.338;2023-05-08T05:15:30;11.70;;;8.13;;
74898;SDS011;63458;48.210;16.338;2023-05-08T05:17:56;10.10;;;7.13;;
74898;SDS011;63458;48.210;16.338;2023-05-08T05:20:22;11.32;;;7.35;;
74898;SDS011;63458;48.210;16.338;2023-05-08T05:22:48;10.38;;;6.70;;
74898;SDS011;63458;48.210;16.338;2023-05-08T05:25:14;12.07;;;7.93;;
74898;SDS011;63458;48.210;16.338;2023-05-08T05:27:40;11.52;;;7.25;;
74898;SDS011;63458;48.210;16.338;2023-05-08T05:30:06;12.13;;;7.60;;
74898;SDS011;63458;48.210;16.338;2023-05-08T05:32:32;10.73;;;7.07;;
74898;SDS011;63458;48.210;16.338;2023-05-08T05:34:58;11.43;;;7.13;;
74898;SDS011;63458;48.210;16.338;2023-05-08T05:37:24;10.98;;;7.93;;
74898;SDS011;63458;48.210;16.338;2023-05-08T05:39:50;10.40;;;6.93;;
74898;SDS011;63458;48.210;16.338;2023-05-08T05:42:16;10.35;;;6.78;;
74898;SDS011;63458;48.210;16.338;2023-05-08T05:44:42;10.85;;;6.93;;
74898;SDS011;63458;48.210;16.338;2023-05-08T05:47:08;10.18;;;6.38;;
74898;SDS011;63458;48.210;16.338;2023-05-08T05:49:35;8.25;;;5.28;;
74898;SDS011;63458;48.210;16.338;2023-05-08T05:52:01;11.38;;;6.55;;
74898;SDS011;63458;48.210;16.338;2023-05-08T05:54:27;10.55;;;6.75;;
74898;SDS011;63458;48.210;16.338;2023-05-08T05:56:53;10.48;;;6.78;;
74898;SDS011;63458;48.210;16.338;2023-05-08T05:59:19;10.40;;;6.78;;
74898;SDS011;63458;48.210;16.338;2023-05-08T06:01:45;9.55;;;6.20;;
74898;SDS011;63458;48.210;16.338;2023-05-08T06:04:10;10.18;;;6.40;;
74898;SDS011;63458;48.210;16.338;2023-05-08T06:06:37;8.90;;;6.07;;
74898;SDS011;63458;48.210;16.338;2023-05-08T06:09:03;9.50;;;6.68;;
74898;SDS011;63458;48.210;16.338;2023-05-08T06:11:30;9.75;;;6.60;;
74898;SDS011;63458;48.210;16.338;2023-05-08T06:13:56;9.85;;;6.18;;
74898;SDS011;63458;48.210;16.338;2023-05-08T06:16:23;9.43;;;6.45;;
74898;SDS011;63458;48.210;16.338;2023-05-08T06:18:49;10.23;;;6.82;;
74898;SDS011;63458;48.210;16.338;2023-05-08T06:21:15;11.05;;;6.43;;
74898;SDS011;63458;48.210;16.338;2023-05-08T06:23:41;10.45;;;6.78;;
74898;SDS011;63458;48.210;16.338;2023-05-08T06:26:09;9.50;;;5.72;;
74898;SDS011;63458;48.210;16.338;2023-05-08T06:28:35;36.40;;;23.05;;
74898;SDS011;63458;48.210;16.338;2023-05-08T06:31:01;59.55;;;37.97;;
74898;SDS011;63458;48.210;16.338;2023-05-08T06:33:27;48.22;;;31.30;;
74898;SDS011;63458;48.210;16.338;2023-05-08T06:35:54;55.95;;;33.92;;
74898;SDS011;63458;48.210;16.338;2023-05-08T06:38:20;17.50;;;10.93;;
74898;SDS011;63458;48.210;16.338;2023-05-08T06:40:46;10.65;;;7.40;;
74898;SDS011;63458;48.210;16.338;2023-05-08T06:43:14;17.80;;;12.02;;
74898;SDS011;63458;48.210;16.338;2023-05-08T06:45:41;14.10;;;8.45;;
74898;SDS011;63458;48.210;16.338;2023-05-08T06:48:07;11.65;;;7.25;;
74898;SDS011;63458;48.210;16.338;2023-05-08T06:50:36;9.75;;;6.00;;
74898;SDS011;63458;48.210;16.338;2023-05-08T06:53:02;11.55;;;5.97;;
74898;SDS011;63458;48.210;16.338;2023-05-08T06:55:28;10.48;;;6.82;;
74898;SDS011;63458;48.210;16.338;2023-05-08T06:57:54;9.52;;;5.55;;
74898;SDS011;63458;48.210;16.338;2023-05-08T07:00:20;9.98;;;6.72;;
74898;SDS011;63458;48.210;16.338;2023-05-08T07:02:46;9.18;;;6.47;;
74898;SDS011;63458;48.210;16.338;2023-05-08T07:05:12;9.35;;;5.88;;
74898;SDS011;63458;48.210;16.338;2023-05-08T07:07:38;9.57;;;6.03;;
74898;SDS011;63458;48.210;16.338;2023-05-08T07:14:58;9.07;;;5.43;;
74898;SDS011;63458;48.210;16.338;2023-05-08T07:17:24;8.75;;;6.25;;
74898;SDS011;63458;48.210;16.338;2023-05-08T07:19:50;9.77;;;6.60;;
74898;SDS011;63458;48.210;16.338;2023-05-08T07:22:17;9.55;;;6.20;;
74898;SDS011;63458;48.210;16.338;2023-05-08T07:24:43;9.60;;;6.25;;
74898;SDS011;63458;48.210;16.338;2023-05-08T07:27:09;9.00;;;6.25;;
74898;SDS011;63458;48.210;16.338;2023-05-08T07:29:38;12.73;;;6.93;;
74898;SDS011;63458;48.210;16.338;2023-05-08T07:32:08;9.52;;;6.55;;
74898;SDS011;63458;48.210;16.338;2023-05-08T07:34:34;9.10;;;5.80;;
74898;SDS011;63458;48.210;16.338;2023-05-08T07:37:00;9.07;;;5.70;;
74898;SDS011;63458;48.210;16.338;2023-05-08T07:39:27;9.20;;;6.25;;
74898;SDS011;63458;48.210;16.338;2023-05-08T07:41:53;9.00;;;5.53;;
74898;SDS011;63458;48.210;16.338;2023-05-08T07:44:19;9.18;;;6.10;;
74898;SDS011;63458;48.210;16.338;2023-05-08T07:46:45;9.98;;;5.80;;
74898;SDS011;63458;48.210;16.338;2023-05-08T07:49:11;9.30;;;5.93;;
74898;SDS011;63458;48.210;16.338;2023-05-08T07:51:37;8.65;;;6.00;;
74898;SDS011;63458;48.210;16.338;2023-05-08T07:54:04;9.75;;;6.40;;
74898;SDS011;63458;48.210;16.338;2023-05-08T07:56:30;10.38;;;6.22;;
74898;SDS011;63458;48.210;16.338;2023-05-08T07:58:56;10.07;;;5.85;;
74898;SDS011;63458;48.210;16.338;2023-05-08T08:01:22;9.00;;;5.60;;
74898;SDS011;63458;48.210;16.338;2023-05-08T08:03:48;8.55;;;5.95;;
74898;SDS011;63458;48.210;16.338;2023-05-08T08:06:14;9.93;;;6.07;;
74898;SDS011;63458;48.210;16.338;2023-05-08T08:13:34;11.45;;;6.03;;
74898;SDS011;63458;48.210;16.338;2023-05-08T08:16:00;7.60;;;4.82;;
74898;SDS011;63458;48.210;16.338;2023-05-08T08:18:28;8.98;;;6.32;;
74898;SDS011;63458;48.210;16.338;2023-05-08T08:20:54;8.80;;;6.05;;
74898;SDS011;63458;48.210;16.338;2023-05-08T08:23:20;10.18;;;6.43;;
74898;SDS011;63458;48.210;16.338;2023-05-08T08:25:46;9.30;;;6.25;;
74898;SDS011;63458;48.210;16.338;2023-05-08T08:28:12;9.27;;;6.15;;
74898;SDS011;63458;48.210;16.338;2023-05-08T08:30:38;8.88;;;5.60;;
74898;SDS011;63458;48.210;16.338;2023-05-08T08:33:04;8.57;;;5.25;;
74898;SDS011;63458;48.210;16.338;2023-05-08T08:35:31;9.02;;;6.60;;
74898;SDS011;63458;48.210;16.338;2023-05-08T08:37:57;9.30;;;5.53;;
74898;SDS011;63458;48.210;16.338;2023-05-08T08:40:23;8.68;;;5.95;;
74898;SDS011;63458;48.210;16.338;2023-05-08T08:42:50;8.10;;;5.50;;
74898;SDS011;63458;48.210;16.338;2023-05-08T08:45:16;9.82;;;6.00;;
74898;SDS011;63458;48.210;16.338;2023-05-08T08:47:43;9.27;;;5.80;;
74898;SDS011;63458;48.210;16.338;2023-05-08T08:50:09;8.32;;;5.68;;
74898;SDS011;63458;48.210;16.338;2023-05-08T08:52:38;9.18;;;6.25;;
74898;SDS011;63458;48.210;16.338;2023-05-08T08:55:06;11.40;;;8.15;;
74898;SDS011;63458;48.210;16.338;2023-05-08T08:57:33;10.30;;;6.72;;
74898;SDS011;63458;48.210;16.338;2023-05-08T09:00:02;10.95;;;7.63;;
74898;SDS011;63458;48.210;16.338;2023-05-08T09:02:29;8.68;;;6.13;;
74898;SDS011;63458;48.210;16.338;2023-05-08T09:04:56;8.38;;;5.57;;
74898;SDS011;63458;48.210;16.338;2023-05-08T09:07:23;8.68;;;5.78;;
74898;SDS011;63458;48.210;16.338;2023-05-08T09:09:50;9.27;;;5.50;;
74898;SDS011;63458;48.210;16.338;2023-05-08T09:12:16;8.85;;;6.25;;
74898;SDS011;63458;48.210;16.338;2023-05-08T09:14:42;8.75;;;5.78;;
74898;SDS011;63458;48.210;16.338;2023-05-08T09:17:08;8.60;;;5.63;;
74898;SDS011;63458;48.210;16.338;2023-05-08T09:19:35;12.70;;;7.07;;
74898;SDS011;63458;48.210;16.338;2023-05-08T09:22:01;12.13;;;6.72;;
74898;SDS011;63458;48.210;16.338;2023-05-08T09:25:10;9.20;;;6.03;;
74898;SDS011;63458;48.210;16.338;2023-05-08T09:27:20;10.52;;;6.00;;
74898;SDS011;63458;48.210;16.338;2023-05-08T09:30:08;8.40;;;6.03;;
74898;SDS011;63458;48.210;16.338;2023-05-08T09:32:34;8.32;;;5.82;;
74898;SDS011;63458;48.210;16.338;2023-05-08T09:35:00;8.52;;;5.10;;
74898;SDS011;63458;48.210;16.338;2023-05-08T09:37:27;8.40;;;5.82;;
74898;SDS011;63458;48.210;16.338;2023-05-08T09:39:54;9.43;;;5.97;;
74898;SDS011;63458;48.210;16.338;2023-05-08T09:42:36;7.80;;;5.30;;
74898;SDS011;63458;48.210;16.338;2023-05-08T09:45:02;8.63;;;5.72;;
74898;SDS011;63458;48.210;16.338;2023-05-08T09:47:28;8.55;;;5.28;;
74898;SDS011;63458;48.210;16.338;2023-05-08T09:49:58;11.45;;;7.40;;
74898;SDS011;63458;48.210;16.338;2023-05-08T09:52:24;9.02;;;6.22;;
74898;SDS011;63458;48.210;16.338;2023-05-08T09:54:57;11.88;;;6.43;;
74898;SDS011;63458;48.210;16.338;2023-05-08T09:57:25;7.75;;;4.95;;
74898;SDS011;63458;48.210;16.338;2023-05-08T10:00:26;7.80;;;5.10;;
74898;SDS011;63458;48.210;16.338;2023-05-08T10:07:49;15.38;;;10.43;;
74898;SDS011;63458;48.210;16.338;2023-05-08T10:10:20;8.13;;;4.60;;
74898;SDS011;63458;48.210;16.338;2023-05-08T10:12:47;9.50;;;4.85;;
74898;SDS011;63458;48.210;16.338;2023-05-08T10:15:13;8.48;;;5.40;;
74898;SDS011;63458;48.210;16.338;2023-05-08T10:20:24;8.02;;;4.75;;
74898;SDS011;63458;48.210;16.338;2023-05-08T10:22:53;9.27;;;5.60;;
74898;SDS011;63458;48.210;16.338;2023-05-08T10:27:49;9.40;;;5.80;;
74898;SDS011;63458;48.210;16.338;2023-05-08T10:30:19;7.75;;;5.07;;
74898;SDS011;63458;48.210;16.338;2023-05-08T10:32:48;11.68;;;8.27;;
74898;SDS011;63458;48.210;16.338;2023-05-08T10:35:19;8.77;;;5.25;;
74898;SDS011;63458;48.210;16.338;2023-05-08T10:37:45;9.27;;;5.28;;
74898;SDS011;63458;48.210;16.338;2023-05-08T10:40:12;8.02;;;5.75;;
74898;SDS011;63458;48.210;16.338;2023-05-08T10:42:40;7.55;;;4.90;;
74898;SDS011;63458;48.210;16.338;2023-05-08T10:45:06;9.65;;;5.15;;
74898;SDS011;63458;48.210;16.338;2023-05-08T10:52:46;8.45;;;5.70;;
74898;SDS011;63458;48.210;16.338;2023-05-08T10:55:29;7.20;;;4.90;;
74898;SDS011;63458;48.210;16.338;2023-05-08T11:03:15;8.57;;;4.75;;
74898;SDS011;63458;48.210;16.338;2023-05-08T11:05:45;7.20;;;4.57;;
74898;SDS011;63458;48.210;16.338;2023-05-08T11:08:16;8.18;;;4.88;;
74898;SDS011;63458;48.210;16.338;2023-05-08T11:10:50;7.75;;;5.07;;
74898;SDS011;63458;48.210;16.338;2023-05-08T11:13:17;6.80;;;4.05;;
74898;SDS011;63458;48.210;16.338;2023-05-08T11:15:48;8.20;;;4.85;;
74898;SDS011;63458;48.210;16.338;2023-05-08T11:18:15;7.80;;;5.05;;
74898;SDS011;63458;48.210;16.338;2023-05-08T11:20:42;9.23;;;6.40;;
74898;SDS011;63458;48.210;16.338;2023-05-08T11:23:40;7.00;;;4.53;;
74898;SDS011;63458;48.210;16.338;2023-05-08T11:26:07;9.57;;;4.50;;
74898;SDS011;63458;48.210;16.338;2023-05-08T11:31:03;8.73;;;5.63;;
74898;SDS011;63458;48.210;16.338;2023-05-08T11:33:33;8.30;;;5.30;;
74898;SDS011;63458;48.210;16.338;2023-05-08T11:36:17;8.55;;;4.95;;
74898;SDS011;63458;48.210;16.338;2023-05-08T11:39:08;7.03;;;4.45;;
74898;SDS011;63458;48.210;16.338;2023-05-08T11:41:39;7.20;;;4.47;;
74898;SDS011;63458;48.210;16.338;2023-05-08T11:49:12;7.35;;;4.68;;
74898;SDS011;63458;48.210;16.338;2023-05-08T11:51:40;7.80;;;4.40;;
74898;SDS011;63458;48.210;16.338;2023-05-08T11:54:14;6.47;;;3.70;;
74898;SDS011;63458;48.210;16.338;2023-05-08T11:56:40;8.20;;;4.70;;
74898;SDS011;63458;48.210;16.338;2023-05-08T11:59:06;8.65;;;5.35;;
74898;SDS011;63458;48.210;16.338;2023-05-08T12:01:33;7.97;;;5.07;;
74898;SDS011;63458;48.210;16.338;2023-05-08T12:04:00;6.25;;;4.15;;
74898;SDS011;63458;48.210;16.338;2023-05-08T12:06:27;7.43;;;5.25;;
74898;SDS011;63458;48.210;16.338;2023-05-08T12:08:53;8.38;;;4.85;;
74898;SDS011;63458;48.210;16.338;2023-05-08T12:11:22;8.90;;;4.60;;
74898;SDS011;63458;48.210;16.338;2023-05-08T12:13:51;8.48;;;5.00;;
74898;SDS011;63458;48.210;16.338;2023-05-08T12:16:18;7.35;;;4.25;;
74898;SDS011;63458;48.210;16.338;2023-05-08T12:18:46;7.72;;;4.55;;
74898;SDS011;63458;48.210;16.338;2023-05-08T12:21:14;7.97;;;4.97;;
74898;SDS011;63458;48.210;16.338;2023-05-08T12:23:40;7.80;;;5.43;;
74898;SDS011;63458;48.210;16.338;2023-05-08T12:26:06;7.47;;;4.88;;
74898;SDS011;63458;48.210;16.338;2023-05-08T12:28:33;7.68;;;4.40;;
74898;SDS011;63458;48.210;16.338;2023-05-08T12:30:59;6.82;;;4.32;;
74898;SDS011;63458;48.210;16.338;2023-05-08T12:33:25;6.85;;;3.83;;
74898;SDS011;63458;48.210;16.338;2023-05-08T12:35:53;6.90;;;3.67;;
74898;SDS011;63458;48.210;16.338;2023-05-08T12:38:23;7.80;;;4.22;;
74898;SDS011;63458;48.210;16.338;2023-05-08T12:40:50;7.43;;;4.57;;
74898;SDS011;63458;48.210;16.338;2023-05-08T12:43:32;8.40;;;5.32;;
74898;SDS011;63458;48.210;16.338;2023-05-08T12:45:59;7.07;;;4.40;;
74898;SDS011;63458;48.210;16.338;2023-05-08T12:48:25;6.68;;;3.97;;
74898;SDS011;63458;48.210;16.338;2023-05-08T12:50:51;6.75;;;3.60;;
74898;SDS011;63458;48.210;16.338;2023-05-08T12:53:18;9.35;;;4.78;;
74898;SDS011;63458;48.210;16.338;2023-05-08T12:58:12;6.28;;;4.15;;
74898;SDS011;63458;48.210;16.338;2023-05-08T13:00:42;6.03;;;3.80;;
74898;SDS011;63458;48.210;16.338;2023-05-08T13:03:09;8.00;;;4.65;;
74898;SDS011;63458;48.210;16.338;2023-05-08T13:05:36;8.75;;;5.75;;
74898;SDS011;63458;48.210;16.338;2023-05-08T13:08:03;7.97;;;4.03;;
74898;SDS011;63458;48.210;16.338;2023-05-08T13:11:12;8.30;;;4.55;;
74898;SDS011;63458;48.210;16.338;2023-05-08T13:13:19;6.78;;;3.70;;
74898;SDS011;63458;48.210;16.338;2023-05-08T13:15:46;6.82;;;3.65;;
74898;SDS011;63458;48.210;16.338;2023-05-08T13:18:12;7.82;;;4.00;;
74898;SDS011;63458;48.210;16.338;2023-05-08T13:20:38;7.55;;;4.75;;
74898;SDS011;63458;48.210;16.338;2023-05-08T13:23:05;9.63;;;7.25;;
74898;SDS011;63458;48.210;16.338;2023-05-08T13:25:31;9.18;;;6.43;;
74898;SDS011;63458;48.210;16.338;2023-05-08T13:27:58;7.25;;;4.20;;
74898;SDS011;63458;48.210;16.338;2023-05-08T13:30:24;6.43;;;3.60;;
74898;SDS011;63458;48.210;16.338;2023-05-08T13:32:50;6.68;;;4.15;;
74898;SDS011;63458;48.210;16.338;2023-05-08T13:35:17;7.03;;;4.10;;
74898;SDS011;63458;48.210;16.338;2023-05-08T13:37:44;7.70;;;5.10;;
74898;SDS011;63458;48.210;16.338;2023-05-08T13:40:10;8.10;;;4.50;;
74898;SDS011;63458;48.210;16.338;2023-05-08T13:42:36;7.72;;;4.05;;
74898;SDS011;63458;48.210;16.338;2023-05-08T13:45:03;8.40;;;3.67;;
74898;SDS011;63458;48.210;16.338;2023-05-08T13:47:29;7.10;;;4.50;;
74898;SDS011;63458;48.210;16.338;2023-05-08T13:49:55;7.15;;;4.40;;
74898;SDS011;63458;48.210;16.338;2023-05-08T13:52:21;7.18;;;4.20;;
74898;SDS011;63458;48.210;16.338;2023-05-08T13:54:47;7.32;;;4.28;;
74898;SDS011;63458;48.210;16.338;2023-05-08T13:57:13;8.30;;;5.13;;
74898;SDS011;63458;48.210;16.338;2023-05-08T13:59:39;8.43;;;4.85;;
74898;SDS011;63458;48.210;16.338;2023-05-08T14:02:05;8.82;;;4.53;;
74898;SDS011;63458;48.210;16.338;2023-05-08T14:04:31;8.57;;;4.55;;
74898;SDS011;63458;48.210;16.338;2023-05-08T14:06:57;6.82;;;3.88;;
74898;SDS011;63458;48.210;16.338;2023-05-08T14:09:24;7.90;;;4.35;;
74898;SDS011;63458;48.210;16.338;2023-05-08T14:11:50;6.70;;;4.05;;
74898;SDS011;63458;48.210;16.338;2023-05-08T14:14:16;7.10;;;4.07;;
74898;SDS011;63458;48.210;16.338;2023-05-08T14:16:42;10.02;;;5.38;;
74898;SDS011;63458;48.210;16.338;2023-05-08T14:19:08;7.35;;;4.57;;
74898;SDS011;63458;48.210;16.338;2023-05-08T14:21:34;9.23;;;4.15;;
74898;SDS011;63458;48.210;16.338;2023-05-08T14:24:01;7.30;;;4.32;;
74898;SDS011;63458;48.210;16.338;2023-05-08T14:26:27;7.20;;;4.25;;
74898;SDS011;63458;48.210;16.338;2023-05-08T14:28:53;6.70;;;4.20;;
74898;SDS011;63458;48.210;16.338;2023-05-08T14:31:19;21.63;;;14.55;;
74898;SDS011;63458;48.210;16.338;2023-05-08T14:33:45;7.47;;;4.22;;
74898;SDS011;63458;48.210;16.338;2023-05-08T14:36:11;8.45;;;4.70;;
74898;SDS011;63458;48.210;16.338;2023-05-08T14:38:37;5.95;;;3.78;;
74898;SDS011;63458;48.210;16.338;2023-05-08T14:41:03;6.43;;;3.75;;
74898;SDS011;63458;48.210;16.338;2023-05-08T14:43:29;12.60;;;7.40;;
74898;SDS011;63458;48.210;16.338;2023-05-08T14:45:55;36.75;;;30.15;;
74898;SDS011;63458;48.210;16.338;2023-05-08T14:48:21;63.78;;;48.17;;
74898;SDS011;63458;48.210;16.338;2023-05-08T14:50:48;30.65;;;23.00;;
74898;SDS011;63458;48.210;16.338;2023-05-08T14:53:14;44.40;;;38.30;;
74898;SDS011;63458;48.210;16.338;2023-05-08T14:55:40;23.77;;;21.05;;
74898;SDS011;63458;48.210;16.338;2023-05-08T14:58:06;21.40;;;19.20;;
74898;SDS011;63458;48.210;16.338;2023-05-08T15:00:32;27.40;;;23.85;;
74898;SDS011;63458;48.210;16.338;2023-05-08T15:02:58;35.72;;;31.65;;
74898;SDS011;63458;48.210;16.338;2023-05-08T15:05:24;19.73;;;17.60;;
74898;SDS011;63458;48.210;16.338;2023-05-08T15:07:50;18.10;;;13.88;;
74898;SDS011;63458;48.210;16.338;2023-05-08T15:10:16;12.57;;;8.70;;
74898;SDS011;63458;48.210;16.338;2023-05-08T15:12:42;11.82;;;8.65;;
74898;SDS011;63458;48.210;16.338;2023-05-08T15:15:08;14.20;;;10.88;;
74898;SDS011;63458;48.210;16.338;2023-05-08T15:17:34;9.70;;;6.07;;
74898;SDS011;63458;48.210;16.338;2023-05-08T15:20:01;8.23;;;4.70;;
74898;SDS011;63458;48.210;16.338;2023-05-08T15:22:27;14.63;;;10.30;;
74898;SDS011;63458;48.210;16.338;2023-05-08T15:24:53;14.48;;;10.57;;
74898;SDS011;63458;48.210;16.338;2023-05-08T15:27:19;11.32;;;8.32;;
74898;SDS011;63458;48.210;16.338;2023-05-08T15:29:45;17.20;;;12.90;;
74898;SDS011;63458;48.210;16.338;2023-05-08T15:32:12;12.98;;;9.20;;
74898;SDS011;63458;48.210;16.338;2023-05-08T15:34:38;10.85;;;7.72;;
74898;SDS011;63458;48.210;16.338;2023-05-08T15:37:04;12.60;;;9.00;;
74898;SDS011;63458;48.210;16.338;2023-05-08T15:39:30;13.73;;;8.68;;